BOS weather

Public forecast

Using degrees Fahrenheit for public forecast. Weather courtesy of forecast.io.

Current aviation weather report (METAR) for General Edward Lawrence Logan International Airport

Retrieved 2020/08/13 00:54 UTC (38 minutes ago):

KBOS 130054Z 00000KT 10SM FEW070 SCT250 25/20 A3002 RMK AO2 SLP165 T02500200

Aviation forecast (TAF) for General Edward Lawrence Logan International Airport

Retrieved 2020-08-13 00:28 UTC (1 hour ago):

TAF KBOS 122324Z 1300/1406 12004KT P6SM SCT250 FM130200 26004KT P6SM SCT250 FM130500 32004KT P6SM SCT250 FM131300 03005KT P6SM SCT250 FM131700 09008KT P6SM SCT250